createdAt,value
2018-09-29T00:00:53.865Z,64.90
2018-09-29T00:03:22.677Z,64.90
2018-09-29T00:05:51.495Z,65.10
2018-09-29T00:08:20.286Z,65.20
2018-09-29T00:10:49.078Z,65.50
2018-09-29T00:13:17.861Z,65.30
2018-09-29T00:15:46.659Z,65.40
2018-09-29T00:18:15.448Z,65.30
2018-09-29T00:20:44.216Z,65.30
2018-09-29T00:23:13.003Z,65.00
2018-09-29T00:25:41.828Z,64.90
2018-09-29T00:28:10.636Z,65.10
2018-09-29T00:30:39.468Z,65.30
2018-09-29T00:33:08.231Z,65.40
2018-09-29T00:35:37.036Z,65.00
2018-09-29T00:38:05.856Z,65.30
2018-09-29T00:40:34.686Z,65.80
2018-09-29T00:43:03.460Z,65.80
2018-09-29T00:45:32.277Z,65.20
2018-09-29T00:48:01.071Z,65.10
2018-09-29T00:50:29.926Z,65.50
2018-09-29T00:52:58.701Z,65.90
2018-09-29T00:55:27.486Z,66.00
2018-09-29T00:57:56.308Z,65.90
2018-09-29T01:00:25.250Z,66.50
2018-09-29T01:02:54.064Z,65.70
2018-09-29T01:05:22.936Z,65.60
2018-09-29T01:07:51.725Z,66.30
2018-09-29T01:10:20.563Z,65.50
2018-09-29T01:12:49.357Z,66.10
2018-09-29T01:15:18.196Z,65.70
2018-09-29T01:17:46.994Z,65.90
2018-09-29T01:20:15.839Z,66.30
2018-09-29T01:22:44.688Z,66.90
2018-09-29T01:25:13.512Z,66.70
2018-09-29T01:27:42.339Z,66.70
2018-09-29T01:30:11.180Z,66.80
2018-09-29T01:32:39.920Z,67.40
2018-09-29T01:35:08.732Z,67.30
2018-09-29T01:37:37.512Z,66.50
2018-09-29T01:40:06.392Z,66.90
2018-09-29T01:42:35.246Z,66.90
2018-09-29T01:45:04.066Z,66.60
2018-09-29T01:47:32.833Z,66.40
2018-09-29T01:50:01.612Z,67.30
2018-09-29T01:52:30.405Z,67.90
2018-09-29T01:54:59.220Z,67.50
2018-09-29T01:57:28.058Z,67.50
2018-09-29T01:59:56.839Z,67.40
2018-09-29T02:02:25.633Z,67.60
2018-09-29T02:04:54.912Z,67.80
2018-09-29T02:07:23.922Z,68.50
2018-09-29T02:09:52.764Z,68.50
2018-09-29T02:12:21.539Z,68.40
2018-09-29T02:14:50.443Z,68.70
2018-09-29T02:17:19.244Z,68.80
2018-09-29T02:19:48.029Z,68.60
2018-09-29T02:22:16.864Z,68.90
2018-09-29T02:24:45.617Z,69.20
2018-09-29T02:27:14.418Z,69.20
2018-09-29T02:29:43.215Z,69.30
2018-09-29T02:32:12.014Z,68.70
2018-09-29T02:34:40.828Z,69.10
2018-09-29T02:37:09.616Z,68.90
2018-09-29T02:39:38.412Z,69.10
2018-09-29T02:42:07.247Z,68.90
2018-09-29T02:44:36.044Z,68.80
2018-09-29T02:47:04.888Z,68.40
2018-09-29T02:49:33.700Z,68.80
2018-09-29T02:52:02.543Z,70.20
2018-09-29T02:54:31.332Z,70.80
2018-09-29T02:57:00.124Z,71.20
2018-09-29T02:59:28.966Z,70.60
2018-09-29T03:01:57.723Z,70.70
2018-09-29T03:04:26.524Z,70.50
2018-09-29T03:06:55.302Z,71.00
2018-09-29T03:09:24.112Z,70.80
2018-09-29T03:11:52.907Z,71.00
2018-09-29T03:14:21.737Z,70.60
2018-09-29T03:16:50.510Z,70.70
2018-09-29T03:19:19.308Z,70.60
2018-09-29T03:21:48.092Z,70.40
2018-09-29T03:24:16.937Z,70.40
2018-09-29T03:26:45.729Z,69.80
2018-09-29T03:29:14.539Z,70.40
2018-09-29T03:31:43.420Z,70.60
2018-09-29T03:34:12.189Z,71.20
2018-09-29T03:36:41.017Z,71.20
2018-09-29T03:39:11.417Z,71.60
2018-09-29T03:41:40.372Z,71.60
2018-09-29T03:44:09.717Z,71.50
2018-09-29T03:46:38.668Z,71.70
2018-09-29T03:49:07.476Z,71.60
2018-09-29T03:51:36.264Z,70.40
2018-09-29T03:54:05.050Z,70.40
2018-09-29T03:56:33.869Z,70.90
2018-09-29T03:59:02.714Z,71.40
2018-09-29T04:01:31.556Z,71.50
2018-09-29T04:04:00.346Z,71.50
2018-09-29T04:06:29.204Z,71.80
2018-09-29T04:08:57.999Z,71.00
2018-09-29T04:11:26.827Z,71.10
2018-09-29T04:13:55.675Z,71.20
2018-09-29T04:16:24.455Z,70.80
2018-09-29T04:18:53.244Z,70.60
2018-09-29T04:21:22.024Z,71.60
2018-09-29T04:23:50.791Z,71.40
2018-09-29T04:26:19.603Z,71.80
2018-09-29T04:28:48.382Z,71.70
2018-09-29T04:31:17.195Z,71.50
2018-09-29T04:33:45.988Z,71.80
2018-09-29T04:36:14.801Z,71.50
2018-09-29T04:38:43.636Z,71.90
2018-09-29T04:41:12.415Z,71.80
2018-09-29T04:43:41.189Z,72.40
2018-09-29T04:46:09.989Z,72.20
2018-09-29T04:48:38.771Z,72.80
2018-09-29T04:51:07.624Z,73.20
2018-09-29T04:53:36.428Z,73.30
2018-09-29T04:56:05.196Z,72.80
2018-09-29T04:58:34.031Z,72.60
2018-09-29T05:01:02.857Z,72.70
2018-09-29T05:03:31.667Z,72.80
2018-09-29T05:06:00.492Z,73.10
2018-09-29T05:08:29.312Z,73.20
2018-09-29T05:10:58.107Z,73.20
2018-09-29T05:13:26.917Z,72.80
2018-09-29T05:15:55.748Z,72.60
2018-09-29T05:18:24.556Z,73.80
2018-09-29T05:20:53.359Z,73.80
2018-09-29T05:23:22.260Z,73.60
2018-09-29T05:25:51.096Z,74.20
2018-09-29T05:28:19.931Z,73.30
2018-09-29T05:30:48.854Z,73.20
2018-09-29T05:33:17.642Z,73.80
2018-09-29T05:35:46.422Z,73.60
2018-09-29T05:38:15.234Z,74.00
2018-09-29T05:40:44.127Z,74.00
2018-09-29T05:43:12.952Z,73.70
2018-09-29T05:45:41.753Z,73.80
2018-09-29T05:48:10.601Z,74.70
2018-09-29T05:50:39.788Z,73.90
2018-09-29T05:53:08.670Z,74.40
2018-09-29T05:55:37.488Z,73.70
2018-09-29T05:58:06.277Z,73.50
2018-09-29T06:00:35.152Z,73.90
2018-09-29T06:03:03.930Z,74.40
2018-09-29T06:05:32.916Z,74.60
2018-09-29T06:08:01.624Z,74.80
2018-09-29T06:10:30.457Z,75.00
2018-09-29T06:12:59.268Z,75.70
2018-09-29T06:15:28.096Z,75.50
2018-09-29T06:17:56.919Z,75.80
2018-09-29T06:20:25.755Z,75.70
2018-09-29T06:22:54.647Z,75.90
2018-09-29T06:25:23.498Z,75.60
2018-09-29T06:27:52.290Z,76.40
2018-09-29T06:30:21.117Z,75.70
2018-09-29T06:32:49.936Z,75.10
2018-09-29T06:35:18.796Z,75.00
2018-09-29T06:37:47.598Z,75.10
2018-09-29T06:40:16.391Z,75.60
2018-09-29T06:42:45.381Z,75.70
2018-09-29T06:45:14.200Z,76.40
2018-09-29T06:47:43.169Z,75.80
2018-09-29T06:50:12.028Z,76.50
2018-09-29T06:52:40.955Z,74.80
2018-09-29T06:55:09.819Z,75.10
2018-09-29T06:57:38.693Z,74.80
2018-09-29T07:00:07.675Z,74.10
2018-09-29T07:02:36.479Z,76.40
2018-09-29T07:05:05.428Z,76.20
2018-09-29T07:07:35.071Z,76.20
2018-09-29T07:10:03.970Z,75.60
2018-09-29T07:12:32.834Z,75.40
2018-09-29T07:15:01.692Z,74.60
2018-09-29T07:17:30.538Z,74.60
2018-09-29T07:19:59.346Z,74.00
2018-09-29T07:22:28.351Z,74.90
2018-09-29T07:24:57.170Z,73.90
2018-09-29T07:27:25.963Z,73.50
2018-09-29T07:29:54.768Z,73.40
2018-09-29T07:32:23.590Z,73.50
2018-09-29T07:34:52.372Z,73.00
2018-09-29T07:37:21.190Z,71.20
2018-09-29T07:39:50.034Z,71.20
2018-09-29T07:42:18.847Z,70.50
2018-09-29T07:44:47.716Z,70.00
2018-09-29T07:47:16.659Z,69.80
2018-09-29T07:49:45.476Z,69.30
2018-09-29T07:52:14.321Z,70.30
2018-09-29T07:54:43.162Z,69.70
2018-09-29T07:57:12.029Z,69.20
2018-09-29T07:59:41.027Z,69.10
2018-09-29T08:02:09.947Z,69.00
2018-09-29T08:04:38.773Z,68.90
2018-09-29T08:07:07.740Z,68.90
2018-09-29T08:09:36.624Z,69.50
2018-09-29T08:12:05.706Z,70.40
2018-09-29T08:14:34.688Z,69.70
2018-09-29T08:17:03.583Z,69.40
2018-09-29T08:19:32.416Z,69.20
2018-09-29T08:22:01.697Z,68.70
2018-09-29T08:24:30.635Z,67.90
2018-09-29T08:26:59.519Z,68.10
2018-09-29T08:29:28.453Z,68.30
2018-09-29T08:31:57.502Z,67.90
2018-09-29T08:34:26.400Z,67.80
2018-09-29T08:36:55.396Z,68.20
2018-09-29T08:39:24.238Z,68.50
2018-09-29T08:41:59.447Z,68.40
2018-09-29T08:44:28.324Z,67.90
2018-09-29T08:46:57.177Z,68.30
2018-09-29T08:49:26.045Z,68.10
2018-09-29T08:51:54.991Z,67.90
2018-09-29T08:54:23.801Z,68.30
2018-09-29T08:56:52.649Z,69.10
2018-09-29T08:59:21.703Z,69.00
2018-09-29T09:01:50.705Z,68.60
2018-09-29T09:04:19.476Z,68.30
2018-09-29T09:06:48.817Z,68.50
2018-09-29T09:09:18.271Z,67.70
2018-09-29T09:11:47.135Z,67.50
2018-09-29T09:14:16.058Z,67.40
2018-09-29T09:16:44.962Z,67.60
2018-09-29T09:19:14.096Z,67.10
2018-09-29T09:21:43.005Z,66.70
2018-09-29T09:24:12.082Z,66.50
2018-09-29T09:26:40.911Z,66.50
2018-09-29T09:29:09.792Z,66.10
2018-09-29T09:31:38.592Z,65.60
2018-09-29T09:34:07.369Z,66.20
2018-09-29T09:36:36.204Z,66.10
2018-09-29T09:39:07.269Z,65.60
2018-09-29T09:41:36.057Z,64.80
2018-09-29T09:44:04.964Z,65.40
2018-09-29T09:46:33.772Z,65.20
2018-09-29T09:49:02.743Z,65.10
2018-09-29T09:51:31.551Z,65.40
2018-09-29T09:54:00.492Z,63.60
2018-09-29T09:56:29.302Z,62.90
2018-09-29T09:58:58.248Z,63.40
2018-09-29T10:01:32.332Z,63.90
2018-09-29T10:04:01.254Z,62.90
2018-09-29T10:06:30.140Z,63.40
2018-09-29T10:08:59.445Z,64.10
2018-09-29T10:11:28.301Z,63.70
2018-09-29T10:13:57.188Z,62.10
2018-09-29T10:16:26.270Z,62.30
2018-09-29T10:18:55.033Z,60.90
2018-09-29T10:21:23.876Z,59.10
2018-09-29T10:23:52.687Z,59.10
2018-09-29T10:26:21.532Z,59.00
2018-09-29T10:28:50.354Z,58.70
2018-09-29T10:31:19.186Z,60.20
2018-09-29T10:33:48.009Z,59.90
2018-09-29T10:36:16.902Z,59.80
2018-09-29T10:38:45.725Z,59.50
2018-09-29T10:41:14.550Z,59.10
2018-09-29T10:43:43.318Z,59.70
2018-09-29T10:46:12.133Z,58.10
2018-09-29T10:48:40.949Z,57.80
2018-09-29T10:51:09.827Z,58.20
2018-09-29T10:53:38.673Z,59.20
2018-09-29T10:56:07.476Z,58.00
2018-09-29T10:58:36.248Z,57.30
2018-09-29T11:01:05.081Z,58.00
2018-09-29T11:03:34.263Z,57.60
2018-09-29T11:06:03.151Z,57.70
2018-09-29T11:08:31.978Z,57.40
2018-09-29T11:11:00.832Z,56.40
2018-09-29T11:13:29.660Z,56.30
2018-09-29T11:15:58.539Z,55.80
2018-09-29T11:18:27.385Z,56.90
2018-09-29T11:20:56.270Z,56.50
2018-09-29T11:23:25.051Z,56.30
2018-09-29T11:25:53.896Z,56.00
2018-09-29T11:28:23.164Z,56.10
2018-09-29T11:30:52.089Z,55.30
2018-09-29T11:33:20.845Z,55.30
2018-09-29T11:35:49.666Z,55.60
2018-09-29T11:38:18.474Z,54.30
2018-09-29T11:40:47.298Z,56.00
2018-09-29T11:43:16.070Z,55.60
2018-09-29T11:45:44.933Z,55.30
2018-09-29T11:48:13.711Z,55.40
2018-09-29T11:50:42.537Z,54.50
2018-09-29T11:53:11.389Z,54.40
2018-09-29T11:55:40.285Z,54.20
2018-09-29T11:58:09.105Z,54.40
2018-09-29T12:00:37.946Z,53.80
2018-09-29T12:03:06.874Z,54.30
2018-09-29T12:05:35.829Z,53.50
2018-09-29T12:08:04.689Z,53.10
2018-09-29T12:10:33.537Z,53.30
2018-09-29T12:13:02.352Z,52.60
2018-09-29T12:15:31.204Z,52.30
2018-09-29T12:18:00.017Z,52.50
2018-09-29T12:20:28.915Z,52.40
2018-09-29T12:22:57.729Z,53.50
2018-09-29T12:25:26.508Z,53.20
2018-09-29T12:27:55.331Z,52.80
2018-09-29T12:30:24.236Z,52.20
2018-09-29T12:32:53.025Z,53.00
2018-09-29T12:35:21.865Z,52.90
2018-09-29T12:37:50.752Z,52.10
2018-09-29T12:40:19.503Z,52.00
2018-09-29T12:42:48.309Z,52.80
2018-09-29T12:45:17.136Z,51.60
2018-09-29T12:47:45.941Z,51.90
2018-09-29T12:50:14.922Z,51.80
2018-09-29T12:52:43.651Z,50.60
2018-09-29T12:55:12.554Z,50.60
2018-09-29T12:57:41.384Z,50.90
2018-09-29T13:00:10.219Z,50.70
2018-09-29T13:02:39.042Z,49.50
2018-09-29T13:05:07.957Z,49.80
2018-09-29T13:07:36.830Z,49.60
2018-09-29T13:10:05.785Z,48.70
2018-09-29T13:12:34.702Z,49.80
2018-09-29T13:15:03.545Z,49.10
2018-09-29T13:17:32.586Z,48.80
2018-09-29T13:20:01.459Z,48.70
2018-09-29T13:22:30.284Z,48.80
2018-09-29T13:24:59.123Z,49.00
2018-09-29T13:27:28.313Z,47.50
2018-09-29T13:29:57.180Z,48.30
2018-09-29T13:32:26.037Z,47.80
2018-09-29T13:34:54.891Z,47.20
2018-09-29T13:37:23.683Z,47.60
2018-09-29T13:39:52.524Z,46.90
2018-09-29T13:42:21.327Z,47.10
2018-09-29T13:44:50.145Z,46.70
2018-09-29T13:47:18.928Z,46.60
2018-09-29T13:49:47.765Z,46.20
2018-09-29T13:52:16.583Z,46.80
2018-09-29T13:54:45.421Z,46.10
2018-09-29T13:57:14.249Z,47.20
2018-09-29T13:59:43.124Z,47.10
2018-09-29T14:02:11.979Z,46.20
2018-09-29T14:04:40.812Z,45.80
2018-09-29T14:07:09.658Z,46.20
2018-09-29T14:09:38.492Z,45.90
2018-09-29T14:12:07.657Z,46.20
2018-09-29T14:14:43.303Z,45.60
2018-09-29T14:17:12.088Z,45.50
2018-09-29T14:19:40.908Z,45.70
2018-09-29T14:22:09.809Z,45.20
2018-09-29T14:24:38.689Z,46.00
2018-09-29T14:27:07.509Z,44.90
2018-09-29T14:29:36.315Z,45.40
2018-09-29T14:32:05.218Z,46.20
2018-09-29T14:34:34.011Z,45.70
2018-09-29T14:37:02.849Z,46.10
2018-09-29T14:39:31.653Z,45.40
2018-09-29T14:42:00.559Z,44.70
2018-09-29T14:44:29.313Z,45.20
2018-09-29T14:46:58.138Z,45.20
2018-09-29T14:49:26.965Z,45.80
2018-09-29T14:51:55.817Z,45.50
2018-09-29T14:54:24.643Z,45.30
2018-09-29T14:56:53.438Z,44.60
2018-09-29T14:59:22.274Z,44.80
2018-09-29T15:01:51.101Z,44.70
2018-09-29T15:04:20.000Z,45.40
2018-09-29T15:06:48.832Z,45.00
2018-09-29T15:09:17.678Z,44.90
2018-09-29T15:11:46.485Z,45.20
2018-09-29T15:14:15.392Z,44.90
2018-09-29T15:16:44.233Z,45.00
2018-09-29T15:19:13.049Z,45.20
2018-09-29T15:21:41.909Z,44.60
2018-09-29T15:24:10.740Z,44.90
2018-09-29T15:26:39.613Z,45.40
2018-09-29T15:29:08.468Z,45.20
2018-09-29T15:31:37.276Z,45.00
2018-09-29T15:34:06.203Z,45.40
2018-09-29T15:36:35.081Z,45.70
2018-09-29T15:39:05.700Z,45.80
2018-09-29T15:41:34.568Z,46.00
2018-09-29T15:44:03.432Z,45.60
2018-09-29T15:46:32.261Z,46.00
2018-09-29T15:49:01.094Z,46.60
2018-09-29T15:51:30.028Z,46.60
2018-09-29T15:53:58.843Z,46.60
2018-09-29T15:56:27.721Z,46.40
2018-09-29T15:58:56.564Z,46.50
2018-09-29T16:01:25.688Z,46.50
2018-09-29T16:03:54.519Z,47.00
2018-09-29T16:06:23.361Z,47.20
2018-09-29T16:08:52.252Z,47.40
2018-09-29T16:11:21.097Z,47.10
2018-09-29T16:13:49.923Z,46.80
2018-09-29T16:16:18.749Z,47.00
2018-09-29T16:18:47.604Z,46.90
2018-09-29T16:21:16.754Z,46.80
2018-09-29T16:23:45.576Z,47.10
2018-09-29T16:26:14.412Z,47.40
2018-09-29T16:28:43.233Z,47.50
2018-09-29T16:31:12.116Z,47.60
2018-09-29T16:33:40.951Z,47.60
2018-09-29T16:36:09.807Z,47.30
2018-09-29T16:38:38.660Z,47.50
2018-09-29T16:41:08.396Z,47.50
2018-09-29T16:43:37.283Z,47.60
2018-09-29T16:46:06.639Z,47.70
2018-09-29T16:48:35.477Z,47.80
2018-09-29T16:51:04.292Z,47.50
2018-09-29T16:53:33.125Z,47.70
2018-09-29T16:56:01.933Z,47.30
2018-09-29T16:58:30.756Z,47.40
2018-09-29T17:00:59.558Z,47.70
2018-09-29T17:03:28.401Z,47.60
2018-09-29T17:05:57.235Z,47.80
2018-09-29T17:08:26.031Z,48.00
2018-09-29T17:10:54.867Z,48.40
2018-09-29T17:13:23.694Z,48.40
2018-09-29T17:15:52.557Z,48.20
2018-09-29T17:18:21.392Z,48.40
2018-09-29T17:20:50.233Z,48.40
2018-09-29T17:23:19.078Z,48.40
2018-09-29T17:25:48.024Z,48.70
2018-09-29T17:28:16.835Z,48.70
2018-09-29T17:30:45.653Z,48.70
2018-09-29T17:33:14.472Z,49.10
2018-09-29T17:35:43.400Z,49.20
2018-09-29T17:38:12.311Z,49.10
2018-09-29T17:40:41.190Z,49.30
2018-09-29T17:43:10.081Z,49.40
2018-09-29T17:45:39.009Z,49.20
2018-09-29T17:48:07.930Z,49.00
2018-09-29T17:50:36.802Z,48.90
2018-09-29T17:53:05.701Z,48.90
2018-09-29T17:55:34.608Z,49.10
2018-09-29T17:58:04.345Z,49.00
2018-09-29T18:00:33.208Z,49.20
2018-09-29T18:03:01.993Z,49.10
2018-09-29T18:05:30.865Z,49.00
2018-09-29T18:07:59.681Z,49.20
2018-09-29T18:10:28.538Z,49.30
2018-09-29T18:12:57.369Z,49.20
2018-09-29T18:15:26.205Z,49.50
2018-09-29T18:17:55.044Z,49.60
2018-09-29T18:20:23.885Z,49.10
2018-09-29T18:22:52.717Z,49.00
2018-09-29T18:25:21.540Z,49.30
2018-09-29T18:27:50.341Z,49.40
2018-09-29T18:30:19.158Z,49.40
2018-09-29T18:32:47.981Z,49.00
2018-09-29T18:35:17.227Z,49.70
2018-09-29T18:37:46.067Z,49.50
2018-09-29T18:40:14.939Z,49.70
2018-09-29T18:42:43.921Z,49.80
2018-09-29T18:45:12.777Z,49.70
2018-09-29T18:47:41.594Z,49.20
2018-09-29T18:50:10.413Z,49.80
2018-09-29T18:52:39.199Z,49.70
2018-09-29T18:55:08.036Z,49.80
2018-09-29T18:57:36.837Z,50.40
2018-09-29T19:00:05.959Z,50.40
2018-09-29T19:02:34.772Z,50.70
2018-09-29T19:05:03.613Z,50.60
2018-09-29T19:07:32.455Z,50.70
2018-09-29T19:10:01.256Z,50.80
2018-09-29T19:13:04.890Z,50.50
2018-09-29T19:15:33.872Z,50.40
2018-09-29T19:18:02.693Z,50.50
2018-09-29T19:20:31.574Z,50.30
2018-09-29T19:23:00.433Z,50.30
2018-09-29T19:25:29.328Z,50.50
2018-09-29T19:27:58.156Z,50.50
2018-09-29T19:30:27.001Z,50.20
2018-09-29T19:32:55.850Z,50.50
2018-09-29T19:35:24.686Z,50.70
2018-09-29T19:37:53.538Z,50.80
2018-09-29T19:40:22.444Z,50.80
2018-09-29T19:42:51.316Z,51.00
2018-09-29T19:45:20.144Z,50.60
2018-09-29T19:47:49.053Z,50.90
2018-09-29T19:50:17.972Z,51.20
2018-09-29T19:52:46.821Z,51.20
2018-09-29T19:55:15.713Z,51.20
2018-09-29T19:57:44.595Z,51.20
2018-09-29T20:00:13.417Z,51.20
2018-09-29T20:02:42.236Z,51.30
2018-09-29T20:05:11.112Z,51.40
2018-09-29T20:07:39.897Z,51.40
2018-09-29T20:10:08.928Z,51.40
2018-09-29T20:12:37.758Z,51.20
2018-09-29T20:15:06.733Z,51.30
2018-09-29T20:17:35.553Z,51.20
2018-09-29T20:20:04.441Z,51.30
2018-09-29T20:22:33.261Z,51.30
2018-09-29T20:25:02.156Z,51.30
2018-09-29T20:27:31.062Z,51.10
2018-09-29T20:29:59.906Z,51.10
2018-09-29T20:32:28.765Z,51.00
2018-09-29T20:34:57.671Z,50.80
2018-09-29T20:37:26.528Z,51.00
2018-09-29T20:39:55.433Z,51.20
2018-09-29T20:42:24.248Z,50.80
2018-09-29T20:44:53.052Z,51.10
2018-09-29T20:47:21.920Z,51.30
2018-09-29T20:50:33.632Z,51.10
2018-09-29T20:53:02.530Z,51.40
2018-09-29T20:55:31.501Z,50.70
2018-09-29T20:58:00.333Z,50.60
2018-09-29T21:00:29.175Z,51.10
2018-09-29T21:02:58.080Z,50.60
2018-09-29T21:05:26.976Z,50.70
2018-09-29T21:07:55.780Z,50.90
2018-09-29T21:10:24.593Z,51.00
2018-09-29T21:12:53.417Z,50.80
2018-09-29T21:15:22.240Z,51.00
2018-09-29T21:17:51.062Z,51.00
2018-09-29T21:20:19.868Z,51.10
2018-09-29T21:22:48.663Z,50.60
2018-09-29T21:25:17.490Z,50.70
2018-09-29T21:27:46.341Z,50.80
2018-09-29T21:30:15.198Z,50.80
2018-09-29T21:32:44.022Z,50.50
2018-09-29T21:35:12.919Z,50.30
2018-09-29T21:37:41.703Z,50.10
2018-09-29T21:40:10.535Z,49.90
2018-09-29T21:42:39.378Z,49.90
2018-09-29T21:45:08.197Z,49.80
2018-09-29T21:47:36.993Z,49.80
2018-09-29T21:50:05.880Z,50.00
2018-09-29T21:52:34.667Z,50.20
2018-09-29T21:55:03.569Z,49.50
2018-09-29T21:57:32.329Z,49.50
2018-09-29T22:00:01.166Z,50.10
2018-09-29T22:02:29.989Z,49.30
2018-09-29T22:04:58.778Z,49.30
2018-09-29T22:07:27.587Z,49.20
2018-09-29T22:09:56.406Z,49.00
2018-09-29T22:12:25.191Z,48.50
2018-09-29T22:14:53.976Z,48.40
2018-09-29T22:17:22.759Z,48.10
2018-09-29T22:19:51.557Z,48.00
2018-09-29T22:22:20.377Z,48.30
2018-09-29T22:24:49.175Z,47.80
2018-09-29T22:27:17.961Z,48.40
2018-09-29T22:29:46.792Z,47.80
2018-09-29T22:32:16.513Z,47.90
2018-09-29T22:34:45.301Z,47.30
2018-09-29T22:37:14.093Z,47.60
2018-09-29T22:39:42.873Z,47.30
2018-09-29T22:42:11.692Z,47.00
2018-09-29T22:44:40.521Z,47.00
2018-09-29T22:47:09.328Z,47.20
2018-09-29T22:49:38.167Z,47.10
2018-09-29T22:52:07.278Z,46.70
2018-09-29T22:54:36.102Z,46.40
2018-09-29T22:57:04.978Z,46.90
2018-09-29T22:59:33.802Z,47.00
2018-09-29T23:02:02.582Z,47.20
2018-09-29T23:04:31.368Z,47.10
2018-09-29T23:07:00.154Z,46.80
2018-09-29T23:09:28.956Z,47.00
2018-09-29T23:11:57.745Z,46.90
2018-09-29T23:14:26.552Z,47.00
2018-09-29T23:16:55.335Z,47.40
2018-09-29T23:19:24.107Z,47.10
2018-09-29T23:21:52.923Z,47.50
2018-09-29T23:24:21.704Z,48.00
2018-09-29T23:26:50.497Z,47.20
2018-09-29T23:29:19.283Z,47.30
2018-09-29T23:31:48.055Z,47.40
2018-09-29T23:34:16.892Z,47.70
2018-09-29T23:36:45.684Z,47.50
2018-09-29T23:39:14.514Z,47.60
2018-09-29T23:41:43.273Z,48.30
2018-09-29T23:44:12.129Z,47.50
2018-09-29T23:46:40.916Z,47.70
2018-09-29T23:49:09.733Z,47.70
2018-09-29T23:51:38.511Z,47.80
2018-09-29T23:54:07.320Z,47.70
2018-09-29T23:56:36.138Z,47.50
2018-09-29T23:59:04.976Z,48.40
